sensor_id;sensor_type;location;lat;lon;timestamp;temperature;humidity
13880;DHT22;7010;48.200;16.332;2023-04-06T00:00:09;3.20;87.00
13880;DHT22;7010;48.200;16.332;2023-04-06T00:02:37;3.10;84.80
13880;DHT22;7010;48.200;16.332;2023-04-06T00:05:07;3.10;86.10
13880;DHT22;7010;48.200;16.332;2023-04-06T00:07:35;3.10;85.80
13880;DHT22;7010;48.200;16.332;2023-04-06T00:10:05;3.00;86.00
13880;DHT22;7010;48.200;16.332;2023-04-06T00:12:33;3.00;86.80
13880;DHT22;7010;48.200;16.332;2023-04-06T00:15:02;3.00;87.90
13880;DHT22;7010;48.200;16.332;2023-04-06T00:17:34;2.90;87.30
13880;DHT22;7010;48.200;16.332;2023-04-06T00:20:03;2.90;88.90
13880;DHT22;7010;48.200;16.332;2023-04-06T00:22:31;2.80;88.20
13880;DHT22;7010;48.200;16.332;2023-04-06T00:24:59;2.80;89.40
13880;DHT22;7010;48.200;16.332;2023-04-06T00:27:28;2.80;88.90
13880;DHT22;7010;48.200;16.332;2023-04-06T00:29:56;2.80;89.60
13880;DHT22;7010;48.200;16.332;2023-04-06T00:32:25;2.70;90.40
13880;DHT22;7010;48.200;16.332;2023-04-06T00:34:55;2.70;91.10
13880;DHT22;7010;48.200;16.332;2023-04-06T00:37:23;2.70;90.60
13880;DHT22;7010;48.200;16.332;2023-04-06T00:39:51;2.70;90.60
13880;DHT22;7010;48.200;16.332;2023-04-06T00:42:21;2.60;90.50
13880;DHT22;7010;48.200;16.332;2023-04-06T00:44:53;2.60;90.90
13880;DHT22;7010;48.200;16.332;2023-04-06T00:47:22;2.60;91.70
13880;DHT22;7010;48.200;16.332;2023-04-06T00:49:53;2.60;92.10
13880;DHT22;7010;48.200;16.332;2023-04-06T00:52:22;2.50;92.20
13880;DHT22;7010;48.200;16.332;2023-04-06T00:54:50;2.50;92.50
13880;DHT22;7010;48.200;16.332;2023-04-06T00:57:19;2.50;92.70
13880;DHT22;7010;48.200;16.332;2023-04-06T00:59:48;2.50;92.90
13880;DHT22;7010;48.200;16.332;2023-04-06T01:02:16;2.50;93.20
13880;DHT22;7010;48.200;16.332;2023-04-06T01:04:45;2.50;93.60
13880;DHT22;7010;48.200;16.332;2023-04-06T01:07:15;2.50;93.70
13880;DHT22;7010;48.200;16.332;2023-04-06T01:09:43;2.50;94.40
13880;DHT22;7010;48.200;16.332;2023-04-06T01:12:12;2.50;94.00
13880;DHT22;7010;48.200;16.332;2023-04-06T01:14:40;2.50;94.40
13880;DHT22;7010;48.200;16.332;2023-04-06T01:17:09;2.40;94.60
13880;DHT22;7010;48.200;16.332;2023-04-06T01:19:37;2.40;94.30
13880;DHT22;7010;48.200;16.332;2023-04-06T01:22:07;2.40;95.30
13880;DHT22;7010;48.200;16.332;2023-04-06T01:24:37;2.40;95.30
13880;DHT22;7010;48.200;16.332;2023-04-06T01:27:05;2.40;95.10
13880;DHT22;7010;48.200;16.332;2023-04-06T01:29:33;2.30;95.60
13880;DHT22;7010;48.200;16.332;2023-04-06T01:32:02;2.30;95.50
13880;DHT22;7010;48.200;16.332;2023-04-06T01:34:30;2.30;95.70
13880;DHT22;7010;48.200;16.332;2023-04-06T01:36:59;2.30;96.70
13880;DHT22;7010;48.200;16.332;2023-04-06T01:39:27;2.30;96.70
13880;DHT22;7010;48.200;16.332;2023-04-06T01:41:57;2.20;96.90
13880;DHT22;7010;48.200;16.332;2023-04-06T01:44:26;2.20;96.30
13880;DHT22;7010;48.200;16.332;2023-04-06T01:46:57;2.20;96.70
13880;DHT22;7010;48.200;16.332;2023-04-06T01:49:25;2.10;97.50
13880;DHT22;7010;48.200;16.332;2023-04-06T01:51:53;2.10;98.40
13880;DHT22;7010;48.200;16.332;2023-04-06T01:54:22;2.00;96.60
13880;DHT22;7010;48.200;16.332;2023-04-06T01:56:50;2.00;96.70
13880;DHT22;7010;48.200;16.332;2023-04-06T01:59:20;1.90;98.00
13880;DHT22;7010;48.200;16.332;2023-04-06T02:01:49;1.90;97.70
13880;DHT22;7010;48.200;16.332;2023-04-06T02:04:17;1.80;97.70
13880;DHT22;7010;48.200;16.332;2023-04-06T02:06:46;1.80;97.20
13880;DHT22;7010;48.200;16.332;2023-04-06T02:09:14;1.80;97.10
13880;DHT22;7010;48.200;16.332;2023-04-06T02:11:43;1.80;97.70
13880;DHT22;7010;48.200;16.332;2023-04-06T02:14:13;1.80;97.00
13880;DHT22;7010;48.200;16.332;2023-04-06T02:16:43;1.70;98.30
13880;DHT22;7010;48.200;16.332;2023-04-06T02:19:12;1.70;98.20
13880;DHT22;7010;48.200;16.332;2023-04-06T02:21:40;1.80;98.20
13880;DHT22;7010;48.200;16.332;2023-04-06T02:24:09;1.80;98.70
13880;DHT22;7010;48.200;16.332;2023-04-06T02:26:37;1.80;97.90
13880;DHT22;7010;48.200;16.332;2023-04-06T02:29:06;1.80;98.20
13880;DHT22;7010;48.200;16.332;2023-04-06T02:31:34;1.80;98.30
13880;DHT22;7010;48.200;16.332;2023-04-06T02:34:04;1.80;98.10
13880;DHT22;7010;48.200;16.332;2023-04-06T02:36:34;1.70;97.80
13880;DHT22;7010;48.200;16.332;2023-04-06T02:39:02;1.70;97.90
13880;DHT22;7010;48.200;16.332;2023-04-06T02:41:31;1.70;97.50
13880;DHT22;7010;48.200;16.332;2023-04-06T02:43:59;1.70;97.80
13880;DHT22;7010;48.200;16.332;2023-04-06T02:46:27;1.80;97.70
13880;DHT22;7010;48.200;16.332;2023-04-06T02:48:56;1.80;97.50
13880;DHT22;7010;48.200;16.332;2023-04-06T02:51:28;1.80;97.50
13880;DHT22;7010;48.200;16.332;2023-04-06T02:53:57;1.80;98.10
13880;DHT22;7010;48.200;16.332;2023-04-06T02:56:25;1.80;97.60
13880;DHT22;7010;48.200;16.332;2023-04-06T02:58:53;1.70;98.10
13880;DHT22;7010;48.200;16.332;2023-04-06T03:01:22;1.70;98.20
13880;DHT22;7010;48.200;16.332;2023-04-06T03:03:50;1.70;98.40
13880;DHT22;7010;48.200;16.332;2023-04-06T03:06:19;1.70;99.10
13880;DHT22;7010;48.200;16.332;2023-04-06T03:08:49;1.60;98.90
13880;DHT22;7010;48.200;16.332;2023-04-06T03:11:18;1.60;98.60
13880;DHT22;7010;48.200;16.332;2023-04-06T03:13:47;1.70;98.60
13880;DHT22;7010;48.200;16.332;2023-04-06T03:16:16;1.70;98.50
13880;DHT22;7010;48.200;16.332;2023-04-06T03:18:44;1.60;98.50
13880;DHT22;7010;48.200;16.332;2023-04-06T03:21:14;1.60;99.10
13880;DHT22;7010;48.200;16.332;2023-04-06T03:23:43;1.60;99.90
13880;DHT22;7010;48.200;16.332;2023-04-06T03:26:13;1.60;99.80
13880;DHT22;7010;48.200;16.332;2023-04-06T03:28:42;1.60;99.90
13880;DHT22;7010;48.200;16.332;2023-04-06T03:31:10;1.60;99.70
13880;DHT22;7010;48.200;16.332;2023-04-06T03:33:39;1.60;99.90
13880;DHT22;7010;48.200;16.332;2023-04-06T03:36:08;1.50;99.90
13880;DHT22;7010;48.200;16.332;2023-04-06T03:38:36;1.50;99.70
13880;DHT22;7010;48.200;16.332;2023-04-06T03:41:07;1.50;99.90
13880;DHT22;7010;48.200;16.332;2023-04-06T03:43:37;1.50;99.90
13880;DHT22;7010;48.200;16.332;2023-04-06T03:46:06;1.50;99.70
13880;DHT22;7010;48.200;16.332;2023-04-06T03:48:34;1.40;99.50
13880;DHT22;7010;48.200;16.332;2023-04-06T03:51:03;1.40;99.90
13880;DHT22;7010;48.200;16.332;2023-04-06T03:53:31;1.40;99.90
13880;DHT22;7010;48.200;16.332;2023-04-06T03:56:00;1.40;99.90
13880;DHT22;7010;48.200;16.332;2023-04-06T03:58:32;1.40;99.90
13880;DHT22;7010;48.200;16.332;2023-04-06T04:01:03;1.40;99.90
13880;DHT22;7010;48.200;16.332;2023-04-06T04:03:31;1.40;99.90
13880;DHT22;7010;48.200;16.332;2023-04-06T04:05:59;1.40;99.90
13880;DHT22;7010;48.200;16.332;2023-04-06T04:08:28;1.40;99.90
13880;DHT22;7010;48.200;16.332;2023-04-06T04:10:56;1.30;99.90
13880;DHT22;7010;48.200;16.332;2023-04-06T04:13:25;1.30;99.90
13880;DHT22;7010;48.200;16.332;2023-04-06T04:15:53;1.30;99.90
13880;DHT22;7010;48.200;16.332;2023-04-06T04:18:23;1.30;99.90
13880;DHT22;7010;48.200;16.332;2023-04-06T04:20:52;1.20;99.90
13880;DHT22;7010;48.200;16.332;2023-04-06T04:23:20;1.20;99.90
13880;DHT22;7010;48.200;16.332;2023-04-06T04:25:48;1.30;99.90
13880;DHT22;7010;48.200;16.332;2023-04-06T04:28:17;1.30;99.90
13880;DHT22;7010;48.200;16.332;2023-04-06T04:30:46;1.30;99.90
13880;DHT22;7010;48.200;16.332;2023-04-06T04:33:15;1.30;99.90
13880;DHT22;7010;48.200;16.332;2023-04-06T04:35:45;1.30;99.90
13880;DHT22;7010;48.200;16.332;2023-04-06T04:38:13;1.30;99.90
13880;DHT22;7010;48.200;16.332;2023-04-06T04:40:41;1.30;99.90
13880;DHT22;7010;48.200;16.332;2023-04-06T04:43:10;1.30;99.90
13880;DHT22;7010;48.200;16.332;2023-04-06T04:45:38;1.30;99.90
13880;DHT22;7010;48.200;16.332;2023-04-06T04:48:07;1.30;99.90
13880;DHT22;7010;48.200;16.332;2023-04-06T04:50:36;1.30;99.90
13880;DHT22;7010;48.200;16.332;2023-04-06T04:53:06;1.40;99.90
13880;DHT22;7010;48.200;16.332;2023-04-06T04:55:34;1.40;99.90
13880;DHT22;7010;48.200;16.332;2023-04-06T04:58:03;1.50;99.90
13880;DHT22;7010;48.200;16.332;2023-04-06T05:00:31;1.50;99.90
13880;DHT22;7010;48.200;16.332;2023-04-06T05:03:00;1.50;99.90
13880;DHT22;7010;48.200;16.332;2023-04-06T05:05:29;1.50;99.90
13880;DHT22;7010;48.200;16.332;2023-04-06T05:07:58;1.50;99.90
13880;DHT22;7010;48.200;16.332;2023-04-06T05:10:27;1.60;99.90
13880;DHT22;7010;48.200;16.332;2023-04-06T05:12:56;1.60;99.90
13880;DHT22;7010;48.200;16.332;2023-04-06T05:15:24;1.60;99.90
13880;DHT22;7010;48.200;16.332;2023-04-06T05:17:53;1.70;99.90
13880;DHT22;7010;48.200;16.332;2023-04-06T05:20:21;1.70;99.90
13880;DHT22;7010;48.200;16.332;2023-04-06T05:22:50;1.70;99.90
13880;DHT22;7010;48.200;16.332;2023-04-06T05:25:18;1.70;99.90
13880;DHT22;7010;48.200;16.332;2023-04-06T05:27:48;1.80;99.90
13880;DHT22;7010;48.200;16.332;2023-04-06T05:30:17;1.80;99.90
13880;DHT22;7010;48.200;16.332;2023-04-06T05:32:46;1.90;99.90
13880;DHT22;7010;48.200;16.332;2023-04-06T05:35:15;1.90;99.90
13880;DHT22;7010;48.200;16.332;2023-04-06T05:37:44;2.00;99.90
13880;DHT22;7010;48.200;16.332;2023-04-06T05:40:12;2.00;99.90
13880;DHT22;7010;48.200;16.332;2023-04-06T05:42:42;2.10;99.90
13880;DHT22;7010;48.200;16.332;2023-04-06T05:45:12;2.10;99.90
13880;DHT22;7010;48.200;16.332;2023-04-06T05:47:43;2.10;99.90
13880;DHT22;7010;48.200;16.332;2023-04-06T05:50:13;2.20;99.90
13880;DHT22;7010;48.200;16.332;2023-04-06T05:52:41;2.30;99.90
13880;DHT22;7010;48.200;16.332;2023-04-06T05:55:12;2.30;99.90
13880;DHT22;7010;48.200;16.332;2023-04-06T05:57:40;2.30;99.90
13880;DHT22;7010;48.200;16.332;2023-04-06T06:00:10;2.30;99.90
13880;DHT22;7010;48.200;16.332;2023-04-06T06:02:40;2.40;99.90
13880;DHT22;7010;48.200;16.332;2023-04-06T06:05:09;2.40;99.90
13880;DHT22;7010;48.200;16.332;2023-04-06T06:07:38;2.50;99.90
13880;DHT22;7010;48.200;16.332;2023-04-06T06:10:07;2.60;99.90
13880;DHT22;7010;48.200;16.332;2023-04-06T06:12:36;2.60;99.90
13880;DHT22;7010;48.200;16.332;2023-04-06T06:15:06;2.60;99.90
13880;DHT22;7010;48.200;16.332;2023-04-06T06:17:34;2.70;99.90
13880;DHT22;7010;48.200;16.332;2023-04-06T06:20:08;2.70;99.90
13880;DHT22;7010;48.200;16.332;2023-04-06T06:22:36;2.80;99.90
13880;DHT22;7010;48.200;16.332;2023-04-06T06:25:07;2.80;99.90
13880;DHT22;7010;48.200;16.332;2023-04-06T06:27:35;2.90;99.90
13880;DHT22;7010;48.200;16.332;2023-04-06T06:30:05;3.00;99.90
13880;DHT22;7010;48.200;16.332;2023-04-06T06:32:33;3.00;99.90
13880;DHT22;7010;48.200;16.332;2023-04-06T06:35:01;3.00;99.90
13880;DHT22;7010;48.200;16.332;2023-04-06T06:37:31;3.10;99.90
13880;DHT22;7010;48.200;16.332;2023-04-06T06:40:00;3.20;99.90
13880;DHT22;7010;48.200;16.332;2023-04-06T06:42:28;3.20;99.90
13880;DHT22;7010;48.200;16.332;2023-04-06T06:44:56;3.20;99.90
13880;DHT22;7010;48.200;16.332;2023-04-06T06:47:25;3.20;99.90
13880;DHT22;7010;48.200;16.332;2023-04-06T06:49:53;3.30;99.90
13880;DHT22;7010;48.200;16.332;2023-04-06T06:52:21;3.30;99.90
13880;DHT22;7010;48.200;16.332;2023-04-06T06:54:52;3.40;99.90
13880;DHT22;7010;48.200;16.332;2023-04-06T06:57:23;3.50;99.90
13880;DHT22;7010;48.200;16.332;2023-04-06T06:59:51;3.60;99.90
13880;DHT22;7010;48.200;16.332;2023-04-06T07:02:20;3.60;99.90
13880;DHT22;7010;48.200;16.332;2023-04-06T07:04:48;3.60;99.90
13880;DHT22;7010;48.200;16.332;2023-04-06T07:07:17;3.70;99.90
13880;DHT22;7010;48.200;16.332;2023-04-06T07:09:45;3.80;99.90
13880;DHT22;7010;48.200;16.332;2023-04-06T07:12:15;3.80;99.90
13880;DHT22;7010;48.200;16.332;2023-04-06T07:14:44;4.00;99.90
13880;DHT22;7010;48.200;16.332;2023-04-06T07:17:12;4.00;99.90
13880;DHT22;7010;48.200;16.332;2023-04-06T07:19:41;4.10;99.90
13880;DHT22;7010;48.200;16.332;2023-04-06T07:22:09;4.20;99.90
13880;DHT22;7010;48.200;16.332;2023-04-06T07:24:38;4.20;99.90
13880;DHT22;7010;48.200;16.332;2023-04-06T07:27:06;4.30;99.90
13880;DHT22;7010;48.200;16.332;2023-04-06T07:29:36;4.30;99.90
13880;DHT22;7010;48.200;16.332;2023-04-06T07:32:04;4.40;99.90
13880;DHT22;7010;48.200;16.332;2023-04-06T07:34:33;4.40;99.90
13880;DHT22;7010;48.200;16.332;2023-04-06T07:37:02;4.50;99.90
13880;DHT22;7010;48.200;16.332;2023-04-06T07:39:30;4.60;99.90
13880;DHT22;7010;48.200;16.332;2023-04-06T07:41:59;4.70;99.90
13880;DHT22;7010;48.200;16.332;2023-04-06T07:44:28;4.80;99.40
13880;DHT22;7010;48.200;16.332;2023-04-06T07:46:58;4.90;99.30
13880;DHT22;7010;48.200;16.332;2023-04-06T07:49:27;4.90;99.00
13880;DHT22;7010;48.200;16.332;2023-04-06T07:51:56;5.00;98.70
13880;DHT22;7010;48.200;16.332;2023-04-06T07:54:24;5.10;98.70
13880;DHT22;7010;48.200;16.332;2023-04-06T07:56:53;5.30;98.40
13880;DHT22;7010;48.200;16.332;2023-04-06T07:59:21;5.40;97.50
13880;DHT22;7010;48.200;16.332;2023-04-06T08:01:49;5.40;97.40
13880;DHT22;7010;48.200;16.332;2023-04-06T08:04:21;5.50;96.50
13880;DHT22;7010;48.200;16.332;2023-04-06T08:06:49;5.60;96.20
13880;DHT22;7010;48.200;16.332;2023-04-06T08:09:18;5.70;95.70
13880;DHT22;7010;48.200;16.332;2023-04-06T08:11:46;5.70;94.80
13880;DHT22;7010;48.200;16.332;2023-04-06T08:14:15;5.80;94.20
13880;DHT22;7010;48.200;16.332;2023-04-06T08:16:44;5.90;94.70
13880;DHT22;7010;48.200;16.332;2023-04-06T08:19:12;6.30;93.10
13880;DHT22;7010;48.200;16.332;2023-04-06T08:21:45;6.50;92.50
13880;DHT22;7010;48.200;16.332;2023-04-06T08:24:14;6.50;93.00
13880;DHT22;7010;48.200;16.332;2023-04-06T08:26:43;6.90;92.20
13880;DHT22;7010;48.200;16.332;2023-04-06T08:29:11;7.20;91.00
13880;DHT22;7010;48.200;16.332;2023-04-06T08:31:39;7.50;90.70
13880;DHT22;7010;48.200;16.332;2023-04-06T08:34:08;7.70;90.20
13880;DHT22;7010;48.200;16.332;2023-04-06T08:36:39;8.30;88.30
13880;DHT22;7010;48.200;16.332;2023-04-06T08:39:10;8.60;86.70
13880;DHT22;7010;48.200;16.332;2023-04-06T08:41:41;8.60;86.00
13880;DHT22;7010;48.200;16.332;2023-04-06T08:44:10;8.90;85.60
13880;DHT22;7010;48.200;16.332;2023-04-06T08:46:38;9.30;85.20
13880;DHT22;7010;48.200;16.332;2023-04-06T08:49:07;9.70;82.90
13880;DHT22;7010;48.200;16.332;2023-04-06T08:51:37;9.80;80.70
13880;DHT22;7010;48.200;16.332;2023-04-06T08:54:05;10.00;79.80
13880;DHT22;7010;48.200;16.332;2023-04-06T08:56:38;10.10;80.10
13880;DHT22;7010;48.200;16.332;2023-04-06T08:59:07;10.50;79.20
13880;DHT22;7010;48.200;16.332;2023-04-06T09:01:39;11.20;78.30
13880;DHT22;7010;48.200;16.332;2023-04-06T09:04:08;11.70;75.90
13880;DHT22;7010;48.200;16.332;2023-04-06T09:06:39;11.80;73.90
13880;DHT22;7010;48.200;16.332;2023-04-06T09:09:08;11.40;74.60
13880;DHT22;7010;48.200;16.332;2023-04-06T09:11:46;11.50;75.70
13880;DHT22;7010;48.200;16.332;2023-04-06T09:14:33;11.90;76.20
13880;DHT22;7010;48.200;16.332;2023-04-06T09:17:02;12.30;72.20
13880;DHT22;7010;48.200;16.332;2023-04-06T09:19:30;12.10;71.80
13880;DHT22;7010;48.200;16.332;2023-04-06T09:22:03;11.80;71.90
13880;DHT22;7010;48.200;16.332;2023-04-06T09:24:41;12.10;72.90
13880;DHT22;7010;48.200;16.332;2023-04-06T09:27:11;12.30;70.60
13880;DHT22;7010;48.200;16.332;2023-04-06T09:29:40;12.70;69.10
13880;DHT22;7010;48.200;16.332;2023-04-06T09:32:12;12.90;69.30
13880;DHT22;7010;48.200;16.332;2023-04-06T09:34:44;12.20;66.90
13880;DHT22;7010;48.200;16.332;2023-04-06T09:37:18;11.60;68.10
13880;DHT22;7010;48.200;16.332;2023-04-06T09:39:47;11.20;69.40
13880;DHT22;7010;48.200;16.332;2023-04-06T09:42:25;11.40;70.30
13880;DHT22;7010;48.200;16.332;2023-04-06T09:44:54;11.80;69.50
13880;DHT22;7010;48.200;16.332;2023-04-06T09:47:24;12.50;67.70
13880;DHT22;7010;48.200;16.332;2023-04-06T09:49:56;12.90;66.40
13880;DHT22;7010;48.200;16.332;2023-04-06T09:52:27;12.80;65.70
13880;DHT22;7010;48.200;16.332;2023-04-06T09:55:01;13.00;62.60
13880;DHT22;7010;48.200;16.332;2023-04-06T09:57:33;12.70;61.90
13880;DHT22;7010;48.200;16.332;2023-04-06T10:00:05;13.00;62.90
13880;DHT22;7010;48.200;16.332;2023-04-06T10:02:44;13.20;63.00
13880;DHT22;7010;48.200;16.332;2023-04-06T10:05:19;13.10;60.60
13880;DHT22;7010;48.200;16.332;2023-04-06T10:07:54;13.50;60.70
13880;DHT22;7010;48.200;16.332;2023-04-06T10:10:27;13.60;59.00
13880;DHT22;7010;48.200;16.332;2023-04-06T10:12:57;12.90;58.50
13880;DHT22;7010;48.200;16.332;2023-04-06T10:15:27;12.40;59.40
13880;DHT22;7010;48.200;16.332;2023-04-06T10:17:56;12.70;60.10
13880;DHT22;7010;48.200;16.332;2023-04-06T10:20:29;12.90;59.80
13880;DHT22;7010;48.200;16.332;2023-04-06T10:23:08;12.30;57.90
13880;DHT22;7010;48.200;16.332;2023-04-06T10:25:37;12.10;58.00
13880;DHT22;7010;48.200;16.332;2023-04-06T10:28:08;12.60;59.00
13880;DHT22;7010;48.200;16.332;2023-04-06T10:30:42;12.70;57.40
13880;DHT22;7010;48.200;16.332;2023-04-06T10:33:14;12.80;58.10
13880;DHT22;7010;48.200;16.332;2023-04-06T10:35:43;12.70;58.20
13880;DHT22;7010;48.200;16.332;2023-04-06T10:38:11;12.80;58.00
13880;DHT22;7010;48.200;16.332;2023-04-06T10:40:42;12.60;57.50
13880;DHT22;7010;48.200;16.332;2023-04-06T10:43:17;12.70;57.20
13880;DHT22;7010;48.200;16.332;2023-04-06T10:45:55;12.90;57.10
13880;DHT22;7010;48.200;16.332;2023-04-06T10:48:24;12.50;55.30
13880;DHT22;7010;48.200;16.332;2023-04-06T10:50:54;12.70;57.60
13880;DHT22;7010;48.200;16.332;2023-04-06T10:53:23;12.90;57.00
13880;DHT22;7010;48.200;16.332;2023-04-06T10:55:53;13.00;55.10
13880;DHT22;7010;48.200;16.332;2023-04-06T10:58:26;13.10;56.00
13880;DHT22;7010;48.200;16.332;2023-04-06T11:00:55;13.60;56.60
13880;DHT22;7010;48.200;16.332;2023-04-06T11:03:23;14.20;56.40
13880;DHT22;7010;48.200;16.332;2023-04-06T11:05:52;14.00;55.40
13880;DHT22;7010;48.200;16.332;2023-04-06T11:08:26;13.80;55.30
13880;DHT22;7010;48.200;16.332;2023-04-06T11:11:04;14.10;57.50
13880;DHT22;7010;48.200;16.332;2023-04-06T11:13:42;13.80;54.50
13880;DHT22;7010;48.200;16.332;2023-04-06T11:16:15;13.20;54.10
13880;DHT22;7010;48.200;16.332;2023-04-06T11:18:51;13.00;55.90
13880;DHT22;7010;48.200;16.332;2023-04-06T11:21:20;13.20;55.40
13880;DHT22;7010;48.200;16.332;2023-04-06T11:23:48;13.40;55.90
13880;DHT22;7010;48.200;16.332;2023-04-06T11:28:47;12.70;53.70
13880;DHT22;7010;48.200;16.332;2023-04-06T11:31:15;12.40;54.80
13880;DHT22;7010;48.200;16.332;2023-04-06T11:33:44;12.50;56.80
13880;DHT22;7010;48.200;16.332;2023-04-06T11:36:13;13.20;55.20
13880;DHT22;7010;48.200;16.332;2023-04-06T11:38:43;13.70;54.00
13880;DHT22;7010;48.200;16.332;2023-04-06T11:41:11;14.40;54.80
13880;DHT22;7010;48.200;16.332;2023-04-06T11:43:47;14.70;52.90
13880;DHT22;7010;48.200;16.332;2023-04-06T11:46:18;14.10;52.00
13880;DHT22;7010;48.200;16.332;2023-04-06T11:48:47;13.00;52.30
13880;DHT22;7010;48.200;16.332;2023-04-06T11:51:22;13.00;53.30
13880;DHT22;7010;48.200;16.332;2023-04-06T11:53:51;13.60;54.20
13880;DHT22;7010;48.200;16.332;2023-04-06T11:56:26;13.80;51.80
13880;DHT22;7010;48.200;16.332;2023-04-06T11:58:57;13.90;53.60
13880;DHT22;7010;48.200;16.332;2023-04-06T12:01:26;14.40;51.80
13880;DHT22;7010;48.200;16.332;2023-04-06T12:03:55;14.80;52.00
13880;DHT22;7010;48.200;16.332;2023-04-06T12:06:24;14.70;49.20
13880;DHT22;7010;48.200;16.332;2023-04-06T12:08:52;14.50;49.40
13880;DHT22;7010;48.200;16.332;2023-04-06T12:11:21;14.40;48.90
13880;DHT22;7010;48.200;16.332;2023-04-06T12:13:50;14.50;49.50
13880;DHT22;7010;48.200;16.332;2023-04-06T12:16:19;15.00;48.80
13880;DHT22;7010;48.200;16.332;2023-04-06T12:18:48;15.10;47.90
13880;DHT22;7010;48.200;16.332;2023-04-06T12:21:16;14.70;48.50
13880;DHT22;7010;48.200;16.332;2023-04-06T12:23:45;14.70;48.80
13880;DHT22;7010;48.200;16.332;2023-04-06T12:26:13;14.60;49.20
13880;DHT22;7010;48.200;16.332;2023-04-06T12:28:42;14.60;48.10
13880;DHT22;7010;48.200;16.332;2023-04-06T12:31:14;14.80;48.30
13880;DHT22;7010;48.200;16.332;2023-04-06T12:33:46;15.00;48.50
13880;DHT22;7010;48.200;16.332;2023-04-06T12:36:16;15.30;48.70
13880;DHT22;7010;48.200;16.332;2023-04-06T12:38:47;15.40;47.70
13880;DHT22;7010;48.200;16.332;2023-04-06T12:41:15;14.90;47.20
13880;DHT22;7010;48.200;16.332;2023-04-06T12:43:44;14.70;47.70
13880;DHT22;7010;48.200;16.332;2023-04-06T12:46:12;14.70;48.90
13880;DHT22;7010;48.200;16.332;2023-04-06T12:48:41;14.90;48.30
13880;DHT22;7010;48.200;16.332;2023-04-06T12:51:10;15.10;47.90
13880;DHT22;7010;48.200;16.332;2023-04-06T12:53:39;15.00;47.70
13880;DHT22;7010;48.200;16.332;2023-04-06T12:56:12;14.70;47.50
13880;DHT22;7010;48.200;16.332;2023-04-06T12:58:41;14.30;47.50
13880;DHT22;7010;48.200;16.332;2023-04-06T13:01:10;13.60;48.60
13880;DHT22;7010;48.200;16.332;2023-04-06T13:03:40;13.60;49.80
13880;DHT22;7010;48.200;16.332;2023-04-06T13:06:10;13.80;49.20
13880;DHT22;7010;48.200;16.332;2023-04-06T13:08:39;13.80;49.80
13880;DHT22;7010;48.200;16.332;2023-04-06T13:11:08;13.80;49.30
13880;DHT22;7010;48.200;16.332;2023-04-06T13:13:37;13.80;49.20
13880;DHT22;7010;48.200;16.332;2023-04-06T13:16:07;13.50;48.90
13880;DHT22;7010;48.200;16.332;2023-04-06T13:18:36;13.50;48.50
13880;DHT22;7010;48.200;16.332;2023-04-06T13:21:06;13.30;49.40
13880;DHT22;7010;48.200;16.332;2023-04-06T13:23:35;13.40;49.00
13880;DHT22;7010;48.200;16.332;2023-04-06T13:26:05;13.60;50.20
13880;DHT22;7010;48.200;16.332;2023-04-06T13:28:34;13.50;49.10
13880;DHT22;7010;48.200;16.332;2023-04-06T13:31:05;13.40;48.90
13880;DHT22;7010;48.200;16.332;2023-04-06T13:33:35;13.20;48.90
13880;DHT22;7010;48.200;16.332;2023-04-06T13:36:04;13.00;49.90
13880;DHT22;7010;48.200;16.332;2023-04-06T13:38:35;12.70;48.50
13880;DHT22;7010;48.200;16.332;2023-04-06T13:41:06;12.80;49.40
13880;DHT22;7010;48.200;16.332;2023-04-06T13:43:34;13.20;49.30
13880;DHT22;7010;48.200;16.332;2023-04-06T13:46:02;13.60;48.80
13880;DHT22;7010;48.200;16.332;2023-04-06T13:48:31;13.70;48.40
13880;DHT22;7010;48.200;16.332;2023-04-06T13:51:08;14.00;48.30
13880;DHT22;7010;48.200;16.332;2023-04-06T13:53:38;13.90;48.50
13880;DHT22;7010;48.200;16.332;2023-04-06T13:56:08;13.70;48.70
13880;DHT22;7010;48.200;16.332;2023-04-06T13:58:36;13.60;49.60
13880;DHT22;7010;48.200;16.332;2023-04-06T14:01:05;13.90;50.50
13880;DHT22;7010;48.200;16.332;2023-04-06T14:03:37;14.20;48.70
13880;DHT22;7010;48.200;16.332;2023-04-06T14:06:12;14.30;47.70
13880;DHT22;7010;48.200;16.332;2023-04-06T14:08:58;14.20;47.40
13880;DHT22;7010;48.200;16.332;2023-04-06T14:11:26;14.20;48.00
13880;DHT22;7010;48.200;16.332;2023-04-06T14:13:54;14.20;48.40
13880;DHT22;7010;48.200;16.332;2023-04-06T14:16:24;14.20;48.20
13880;DHT22;7010;48.200;16.332;2023-04-06T14:18:53;13.80;48.10
13880;DHT22;7010;48.200;16.332;2023-04-06T14:21:22;13.60;47.70
13880;DHT22;7010;48.200;16.332;2023-04-06T14:23:50;13.30;48.60
13880;DHT22;7010;48.200;16.332;2023-04-06T14:26:20;13.50;49.00
13880;DHT22;7010;48.200;16.332;2023-04-06T14:28:49;13.50;49.20
13880;DHT22;7010;48.200;16.332;2023-04-06T14:31:19;13.70;48.70
13880;DHT22;7010;48.200;16.332;2023-04-06T14:33:48;13.60;49.50
13880;DHT22;7010;48.200;16.332;2023-04-06T14:36:17;13.60;49.90
13880;DHT22;7010;48.200;16.332;2023-04-06T14:38:45;13.70;49.40
13880;DHT22;7010;48.200;16.332;2023-04-06T14:41:21;13.60;49.40
13880;DHT22;7010;48.200;16.332;2023-04-06T14:43:50;13.40;50.30
13880;DHT22;7010;48.200;16.332;2023-04-06T14:46:19;13.40;49.00
13880;DHT22;7010;48.200;16.332;2023-04-06T14:48:47;13.30;49.30
13880;DHT22;7010;48.200;16.332;2023-04-06T14:51:16;13.10;49.70
13880;DHT22;7010;48.200;16.332;2023-04-06T14:53:44;13.00;49.40
13880;DHT22;7010;48.200;16.332;2023-04-06T14:56:19;12.90;50.10
13880;DHT22;7010;48.200;16.332;2023-04-06T14:58:48;12.90;50.10
13880;DHT22;7010;48.200;16.332;2023-04-06T15:01:18;12.70;50.30
13880;DHT22;7010;48.200;16.332;2023-04-06T15:03:47;12.80;50.40
13880;DHT22;7010;48.200;16.332;2023-04-06T15:06:17;12.90;50.50
13880;DHT22;7010;48.200;16.332;2023-04-06T15:08:48;12.80;50.00
13880;DHT22;7010;48.200;16.332;2023-04-06T15:11:16;12.90;50.80
13880;DHT22;7010;48.200;16.332;2023-04-06T15:13:46;12.80;51.50
13880;DHT22;7010;48.200;16.332;2023-04-06T15:16:14;12.70;51.40
13880;DHT22;7010;48.200;16.332;2023-04-06T15:18:43;12.70;51.40
13880;DHT22;7010;48.200;16.332;2023-04-06T15:21:11;12.70;52.00
13880;DHT22;7010;48.200;16.332;2023-04-06T15:23:40;12.60;51.60
13880;DHT22;7010;48.200;16.332;2023-04-06T15:26:08;12.60;51.50
13880;DHT22;7010;48.200;16.332;2023-04-06T15:28:36;12.60;51.30
13880;DHT22;7010;48.200;16.332;2023-04-06T15:31:14;12.70;52.70
13880;DHT22;7010;48.200;16.332;2023-04-06T15:33:59;12.60;51.50
13880;DHT22;7010;48.200;16.332;2023-04-06T15:36:29;12.60;52.10
13880;DHT22;7010;48.200;16.332;2023-04-06T15:38:57;12.40;51.80
13880;DHT22;7010;48.200;16.332;2023-04-06T15:41:26;12.30;51.80
13880;DHT22;7010;48.200;16.332;2023-04-06T15:43:55;12.30;52.70
13880;DHT22;7010;48.200;16.332;2023-04-06T15:46:25;12.30;53.90
13880;DHT22;7010;48.200;16.332;2023-04-06T15:48:55;12.30;53.00
13880;DHT22;7010;48.200;16.332;2023-04-06T15:51:23;12.30;53.00
13880;DHT22;7010;48.200;16.332;2023-04-06T15:53:52;12.10;52.50
13880;DHT22;7010;48.200;16.332;2023-04-06T15:56:20;12.00;52.60